Alpine, Wyoming
Current Conditions -  °F | °C
As of 12:55 PM on Sunday 25 Jan 2015 (Local Time) from KAFO Reporting Station
Overcast Overcast  
Wind Chill: 26°   Ceiling: 2600
Heat Index: 32°   Visibility: 10mi
Dew Point: 30°   Wind: 7mph
Humidity: 93%   Direction: 290°WNW
Pressure: 30.43"   Gusts: NA
Location:  43.18°N, 111.03°W
Report Text: KAFO 251955Z AUTO 29006KT 10SM OVC026 00/M01 A3043 RMK AO2
Loading
Personal Weather Stations






























Interactive Weather Map New forecast layout! Learn more

10-Day Weather Forecast

Advertisements
Track Severe Weather on mobile